sensor_id;sensor_type;location;lat;lon;timestamp;temperature;humidity
5868;DHT22;2960;49.142;7.768;2023-03-01T00:01:09;1.50;47.10
5868;DHT22;2960;49.142;7.768;2023-03-01T00:03:38;1.50;47.20
5868;DHT22;2960;49.142;7.768;2023-03-01T00:06:13;1.50;47.20
5868;DHT22;2960;49.142;7.768;2023-03-01T00:08:41;1.40;47.20
5868;DHT22;2960;49.142;7.768;2023-03-01T00:11:13;1.40;47.30
5868;DHT22;2960;49.142;7.768;2023-03-01T00:13:43;1.40;47.30
5868;DHT22;2960;49.142;7.768;2023-03-01T00:16:14;1.40;47.40
5868;DHT22;2960;49.142;7.768;2023-03-01T00:18:42;1.40;47.50
5868;DHT22;2960;49.142;7.768;2023-03-01T00:21:10;1.30;47.40
5868;DHT22;2960;49.142;7.768;2023-03-01T00:23:38;1.30;47.40
5868;DHT22;2960;49.142;7.768;2023-03-01T00:26:07;1.30;47.50
5868;DHT22;2960;49.142;7.768;2023-03-01T00:28:35;1.20;47.50
5868;DHT22;2960;49.142;7.768;2023-03-01T00:31:04;1.30;47.70
5868;DHT22;2960;49.142;7.768;2023-03-01T00:33:33;1.20;47.70
5868;DHT22;2960;49.142;7.768;2023-03-01T00:36:00;1.20;47.70
5868;DHT22;2960;49.142;7.768;2023-03-01T00:38:28;1.20;47.80
5868;DHT22;2960;49.142;7.768;2023-03-01T00:40:55;1.20;47.80
5868;DHT22;2960;49.142;7.768;2023-03-01T00:43:23;1.10;47.80
5868;DHT22;2960;49.142;7.768;2023-03-01T00:45:50;1.10;47.90
5868;DHT22;2960;49.142;7.768;2023-03-01T00:48:17;1.10;47.90
5868;DHT22;2960;49.142;7.768;2023-03-01T00:50:45;1.10;48.20
5868;DHT22;2960;49.142;7.768;2023-03-01T00:53:12;1.10;48.00
5868;DHT22;2960;49.142;7.768;2023-03-01T00:55:42;1.00;48.00
5868;DHT22;2960;49.142;7.768;2023-03-01T00:58:09;1.10;48.10
5868;DHT22;2960;49.142;7.768;2023-03-01T01:00:39;1.10;48.10
5868;DHT22;2960;49.142;7.768;2023-03-01T01:03:06;1.00;48.10
5868;DHT22;2960;49.142;7.768;2023-03-01T01:05:34;1.00;48.10
5868;DHT22;2960;49.142;7.768;2023-03-01T01:08:03;1.00;48.20
5868;DHT22;2960;49.142;7.768;2023-03-01T01:10:30;0.90;48.20
5868;DHT22;2960;49.142;7.768;2023-03-01T01:12:57;0.90;48.30
5868;DHT22;2960;49.142;7.768;2023-03-01T01:15:27;0.90;48.40
5868;DHT22;2960;49.142;7.768;2023-03-01T01:17:55;1.00;48.50
5868;DHT22;2960;49.142;7.768;2023-03-01T01:20:22;0.90;48.50
5868;DHT22;2960;49.142;7.768;2023-03-01T01:22:49;0.90;48.50
5868;DHT22;2960;49.142;7.768;2023-03-01T01:25:18;0.80;48.50
5868;DHT22;2960;49.142;7.768;2023-03-01T01:27:45;0.80;48.50
5868;DHT22;2960;49.142;7.768;2023-03-01T01:30:13;0.80;48.50
5868;DHT22;2960;49.142;7.768;2023-03-01T01:32:40;0.80;48.50
5868;DHT22;2960;49.142;7.768;2023-03-01T01:35:07;0.80;48.60
5868;DHT22;2960;49.142;7.768;2023-03-01T01:37:35;0.80;48.60
5868;DHT22;2960;49.142;7.768;2023-03-01T01:40:03;0.70;48.60
5868;DHT22;2960;49.142;7.768;2023-03-01T01:42:33;0.70;48.60
5868;DHT22;2960;49.142;7.768;2023-03-01T01:45:28;0.70;48.60
5868;DHT22;2960;49.142;7.768;2023-03-01T01:48:00;0.70;48.60
5868;DHT22;2960;49.142;7.768;2023-03-01T01:50:33;0.70;48.70
5868;DHT22;2960;49.142;7.768;2023-03-01T01:53:07;0.80;48.80
5868;DHT22;2960;49.142;7.768;2023-03-01T01:55:37;0.60;48.70
5868;DHT22;2960;49.142;7.768;2023-03-01T01:58:11;0.60;48.70
5868;DHT22;2960;49.142;7.768;2023-03-01T02:00:40;0.60;48.80
5868;DHT22;2960;49.142;7.768;2023-03-01T02:03:11;0.50;48.80
5868;DHT22;2960;49.142;7.768;2023-03-01T02:05:46;0.50;48.90
5868;DHT22;2960;49.142;7.768;2023-03-01T02:08:19;0.50;49.00
5868;DHT22;2960;49.142;7.768;2023-03-01T02:10:48;0.50;49.10
5868;DHT22;2960;49.142;7.768;2023-03-01T02:13:18;0.40;49.10
5868;DHT22;2960;49.142;7.768;2023-03-01T02:15:46;0.40;49.10
5868;DHT22;2960;49.142;7.768;2023-03-01T02:18:16;0.40;49.10
5868;DHT22;2960;49.142;7.768;2023-03-01T02:20:56;0.40;49.20
5868;DHT22;2960;49.142;7.768;2023-03-01T02:23:34;0.40;49.20
5868;DHT22;2960;49.142;7.768;2023-03-01T02:26:07;0.40;49.30
5868;DHT22;2960;49.142;7.768;2023-03-01T02:28:38;0.40;49.40
5868;DHT22;2960;49.142;7.768;2023-03-01T02:31:09;0.40;49.30
5868;DHT22;2960;49.142;7.768;2023-03-01T02:33:54;0.40;49.30
5868;DHT22;2960;49.142;7.768;2023-03-01T02:36:24;0.30;49.30
5868;DHT22;2960;49.142;7.768;2023-03-01T02:38:57;0.30;49.30
5868;DHT22;2960;49.142;7.768;2023-03-01T02:41:26;0.30;50.00
5868;DHT22;2960;49.142;7.768;2023-03-01T02:43:57;0.30;49.50
5868;DHT22;2960;49.142;7.768;2023-03-01T02:46:26;0.30;49.60
5868;DHT22;2960;49.142;7.768;2023-03-01T02:48:55;0.30;49.60
5868;DHT22;2960;49.142;7.768;2023-03-01T02:51:31;0.30;49.60
5868;DHT22;2960;49.142;7.768;2023-03-01T02:54:15;0.30;49.60
5868;DHT22;2960;49.142;7.768;2023-03-01T02:56:47;0.20;49.50
5868;DHT22;2960;49.142;7.768;2023-03-01T02:59:16;0.20;49.50
5868;DHT22;2960;49.142;7.768;2023-03-01T03:01:45;0.20;49.60
5868;DHT22;2960;49.142;7.768;2023-03-01T03:04:16;0.20;49.50
5868;DHT22;2960;49.142;7.768;2023-03-01T03:06:45;0.20;49.50
5868;DHT22;2960;49.142;7.768;2023-03-01T03:09:14;0.20;49.50
5868;DHT22;2960;49.142;7.768;2023-03-01T03:11:42;0.20;49.60
5868;DHT22;2960;49.142;7.768;2023-03-01T03:14:10;0.20;49.50
5868;DHT22;2960;49.142;7.768;2023-03-01T03:16:42;0.10;49.60
5868;DHT22;2960;49.142;7.768;2023-03-01T03:19:10;0.10;49.60
5868;DHT22;2960;49.142;7.768;2023-03-01T03:21:38;0.10;49.70
5868;DHT22;2960;49.142;7.768;2023-03-01T03:24:08;0.10;49.70
5868;DHT22;2960;49.142;7.768;2023-03-01T03:26:35;0.10;49.80
5868;DHT22;2960;49.142;7.768;2023-03-01T03:29:03;0.00;49.90
5868;DHT22;2960;49.142;7.768;2023-03-01T03:31:30;0.00;49.90
5868;DHT22;2960;49.142;7.768;2023-03-01T03:33:58;0.00;49.90
5868;DHT22;2960;49.142;7.768;2023-03-01T03:36:26;0.00;50.00
5868;DHT22;2960;49.142;7.768;2023-03-01T03:38:55;0.00;50.00
5868;DHT22;2960;49.142;7.768;2023-03-01T03:41:22;0.00;50.00
5868;DHT22;2960;49.142;7.768;2023-03-01T03:43:49;-0.10;50.00
5868;DHT22;2960;49.142;7.768;2023-03-01T03:46:16;0.00;50.00
5868;DHT22;2960;49.142;7.768;2023-03-01T03:48:45;-0.10;50.00
5868;DHT22;2960;49.142;7.768;2023-03-01T03:51:16;-0.10;50.10
5868;DHT22;2960;49.142;7.768;2023-03-01T03:53:44;-0.10;50.10
5868;DHT22;2960;49.142;7.768;2023-03-01T03:56:11;-0.10;50.10
5868;DHT22;2960;49.142;7.768;2023-03-01T03:58:39;-0.10;50.70
5868;DHT22;2960;49.142;7.768;2023-03-01T04:01:09;-0.10;50.20
5868;DHT22;2960;49.142;7.768;2023-03-01T04:03:36;-0.20;50.20
5868;DHT22;2960;49.142;7.768;2023-03-01T04:06:03;-0.20;50.20
5868;DHT22;2960;49.142;7.768;2023-03-01T04:08:33;-0.10;50.30
5868;DHT22;2960;49.142;7.768;2023-03-01T04:11:01;-0.20;50.30
5868;DHT22;2960;49.142;7.768;2023-03-01T04:13:50;-0.20;50.40
5868;DHT22;2960;49.142;7.768;2023-03-01T04:16:18;-0.20;50.50
5868;DHT22;2960;49.142;7.768;2023-03-01T04:18:46;-0.20;50.60
5868;DHT22;2960;49.142;7.768;2023-03-01T04:21:14;-0.20;50.60
5868;DHT22;2960;49.142;7.768;2023-03-01T04:23:42;-0.20;50.60
5868;DHT22;2960;49.142;7.768;2023-03-01T04:26:09;-0.20;50.60
5868;DHT22;2960;49.142;7.768;2023-03-01T04:28:37;-0.30;51.10
5868;DHT22;2960;49.142;7.768;2023-03-01T04:31:10;-0.20;50.60
5868;DHT22;2960;49.142;7.768;2023-03-01T04:33:43;-0.20;50.50
5868;DHT22;2960;49.142;7.768;2023-03-01T04:36:13;-0.30;50.50
5868;DHT22;2960;49.142;7.768;2023-03-01T04:38:42;-0.30;50.60
5868;DHT22;2960;49.142;7.768;2023-03-01T04:41:14;-0.30;50.60
5868;DHT22;2960;49.142;7.768;2023-03-01T04:43:42;-0.30;50.60
5868;DHT22;2960;49.142;7.768;2023-03-01T04:46:11;-0.30;50.60
5868;DHT22;2960;49.142;7.768;2023-03-01T04:48:40;-0.30;50.60
5868;DHT22;2960;49.142;7.768;2023-03-01T04:51:09;-0.30;50.60
5868;DHT22;2960;49.142;7.768;2023-03-01T04:53:39;-0.30;50.60
5868;DHT22;2960;49.142;7.768;2023-03-01T04:56:08;-0.40;50.60
5868;DHT22;2960;49.142;7.768;2023-03-01T04:58:36;-0.40;50.70
5868;DHT22;2960;49.142;7.768;2023-03-01T05:01:09;-0.40;50.70
5868;DHT22;2960;49.142;7.768;2023-03-01T05:03:41;-0.40;50.90
5868;DHT22;2960;49.142;7.768;2023-03-01T05:06:09;-0.40;51.10
5868;DHT22;2960;49.142;7.768;2023-03-01T05:08:37;-0.40;50.90
5868;DHT22;2960;49.142;7.768;2023-03-01T05:11:05;-0.50;50.80
5868;DHT22;2960;49.142;7.768;2023-03-01T05:13:37;-0.50;50.90
5868;DHT22;2960;49.142;7.768;2023-03-01T05:16:06;-0.50;51.40
5868;DHT22;2960;49.142;7.768;2023-03-01T05:18:37;-0.50;50.90
5868;DHT22;2960;49.142;7.768;2023-03-01T05:21:06;-0.50;50.90
5868;DHT22;2960;49.142;7.768;2023-03-01T05:23:34;-0.50;50.90
5868;DHT22;2960;49.142;7.768;2023-03-01T05:26:03;-0.50;50.90
5868;DHT22;2960;49.142;7.768;2023-03-01T05:28:32;-0.50;51.00
5868;DHT22;2960;49.142;7.768;2023-03-01T05:31:01;-0.50;51.00
5868;DHT22;2960;49.142;7.768;2023-03-01T05:33:28;-0.50;51.10
5868;DHT22;2960;49.142;7.768;2023-03-01T05:36:00;-0.60;51.00
5868;DHT22;2960;49.142;7.768;2023-03-01T05:38:27;-0.60;51.00
5868;DHT22;2960;49.142;7.768;2023-03-01T05:40:54;-0.60;51.10
5868;DHT22;2960;49.142;7.768;2023-03-01T05:43:21;-0.60;51.70
5868;DHT22;2960;49.142;7.768;2023-03-01T05:45:48;-0.60;51.10
5868;DHT22;2960;49.142;7.768;2023-03-01T05:48:17;-0.60;51.20
5868;DHT22;2960;49.142;7.768;2023-03-01T05:50:45;-0.70;51.20
5868;DHT22;2960;49.142;7.768;2023-03-01T05:53:14;-0.70;51.20
5868;DHT22;2960;49.142;7.768;2023-03-01T05:55:43;-0.70;51.20
5868;DHT22;2960;49.142;7.768;2023-03-01T05:58:14;-0.70;51.60
5868;DHT22;2960;49.142;7.768;2023-03-01T06:00:43;-0.70;51.30
5868;DHT22;2960;49.142;7.768;2023-03-01T06:03:12;-0.70;51.90
5868;DHT22;2960;49.142;7.768;2023-03-01T06:05:42;-0.70;51.40
5868;DHT22;2960;49.142;7.768;2023-03-01T06:08:10;-0.70;51.50
5868;DHT22;2960;49.142;7.768;2023-03-01T06:10:38;-0.70;51.50
5868;DHT22;2960;49.142;7.768;2023-03-01T06:13:06;-0.70;51.50
5868;DHT22;2960;49.142;7.768;2023-03-01T06:15:33;-0.70;51.50
5868;DHT22;2960;49.142;7.768;2023-03-01T06:18:00;-0.70;51.40
5868;DHT22;2960;49.142;7.768;2023-03-01T06:20:29;-0.70;51.50
5868;DHT22;2960;49.142;7.768;2023-03-01T06:22:57;-0.80;51.40
5868;DHT22;2960;49.142;7.768;2023-03-01T06:25:26;-0.80;51.50
5868;DHT22;2960;49.142;7.768;2023-03-01T06:27:54;-0.80;51.60
5868;DHT22;2960;49.142;7.768;2023-03-01T06:30:23;-0.80;51.60
5868;DHT22;2960;49.142;7.768;2023-03-01T06:32:51;-0.70;51.70
5868;DHT22;2960;49.142;7.768;2023-03-01T06:35:26;-0.80;51.70
5868;DHT22;2960;49.142;7.768;2023-03-01T06:37:57;-0.80;51.70
5868;DHT22;2960;49.142;7.768;2023-03-01T06:40:26;-0.70;51.80
5868;DHT22;2960;49.142;7.768;2023-03-01T06:42:53;-0.70;51.80
5868;DHT22;2960;49.142;7.768;2023-03-01T06:45:21;-0.70;51.80
5868;DHT22;2960;49.142;7.768;2023-03-01T06:47:48;-0.70;51.80
5868;DHT22;2960;49.142;7.768;2023-03-01T06:50:16;-0.70;51.70
5868;DHT22;2960;49.142;7.768;2023-03-01T06:52:46;-0.70;51.80
5868;DHT22;2960;49.142;7.768;2023-03-01T06:55:18;-0.70;51.70
5868;DHT22;2960;49.142;7.768;2023-03-01T06:57:45;-0.60;51.80
5868;DHT22;2960;49.142;7.768;2023-03-01T07:00:13;-0.60;51.80
5868;DHT22;2960;49.142;7.768;2023-03-01T07:02:41;-0.50;51.90
5868;DHT22;2960;49.142;7.768;2023-03-01T07:05:08;-0.50;51.90
5868;DHT22;2960;49.142;7.768;2023-03-01T07:07:35;-0.40;52.00
5868;DHT22;2960;49.142;7.768;2023-03-01T07:10:03;-0.30;52.60
5868;DHT22;2960;49.142;7.768;2023-03-01T07:12:32;-0.30;52.10
5868;DHT22;2960;49.142;7.768;2023-03-01T07:14:59;-0.20;52.70
5868;DHT22;2960;49.142;7.768;2023-03-01T07:17:26;-0.10;52.20
5868;DHT22;2960;49.142;7.768;2023-03-01T07:19:53;0.00;52.20
5868;DHT22;2960;49.142;7.768;2023-03-01T07:22:21;0.10;52.20
5868;DHT22;2960;49.142;7.768;2023-03-01T07:24:48;0.20;52.30
5868;DHT22;2960;49.142;7.768;2023-03-01T07:27:15;0.20;52.20
5868;DHT22;2960;49.142;7.768;2023-03-01T07:29:44;0.30;52.30
5868;DHT22;2960;49.142;7.768;2023-03-01T07:32:11;0.40;52.30
5868;DHT22;2960;49.142;7.768;2023-03-01T07:34:38;0.50;52.40
5868;DHT22;2960;49.142;7.768;2023-03-01T07:37:05;0.60;52.40
5868;DHT22;2960;49.142;7.768;2023-03-01T07:39:32;0.70;52.50
5868;DHT22;2960;49.142;7.768;2023-03-01T07:41:59;0.90;52.60
5868;DHT22;2960;49.142;7.768;2023-03-01T07:44:26;1.00;52.60
5868;DHT22;2960;49.142;7.768;2023-03-01T07:46:56;1.10;52.60
5868;DHT22;2960;49.142;7.768;2023-03-01T07:49:23;1.20;53.10
5868;DHT22;2960;49.142;7.768;2023-03-01T07:51:51;1.40;52.60
5868;DHT22;2960;49.142;7.768;2023-03-01T07:54:18;1.50;52.70
5868;DHT22;2960;49.142;7.768;2023-03-01T07:56:45;1.70;52.80
5868;DHT22;2960;49.142;7.768;2023-03-01T07:59:13;1.90;52.80
5868;DHT22;2960;49.142;7.768;2023-03-01T08:01:40;2.00;52.80
5868;DHT22;2960;49.142;7.768;2023-03-01T08:04:09;2.20;52.80
5868;DHT22;2960;49.142;7.768;2023-03-01T08:06:37;2.40;52.80
5868;DHT22;2960;49.142;7.768;2023-03-01T08:09:04;2.50;52.80
5868;DHT22;2960;49.142;7.768;2023-03-01T08:11:33;2.70;52.70
5868;DHT22;2960;49.142;7.768;2023-03-01T08:14:00;2.90;52.70
5868;DHT22;2960;49.142;7.768;2023-03-01T08:16:27;3.10;52.60
5868;DHT22;2960;49.142;7.768;2023-03-01T08:18:54;3.30;52.50
5868;DHT22;2960;49.142;7.768;2023-03-01T08:21:23;3.40;52.40
5868;DHT22;2960;49.142;7.768;2023-03-01T08:23:50;3.60;52.30
5868;DHT22;2960;49.142;7.768;2023-03-01T08:26:19;3.80;52.20
5868;DHT22;2960;49.142;7.768;2023-03-01T08:28:49;4.00;52.10
5868;DHT22;2960;49.142;7.768;2023-03-01T08:31:19;4.20;52.60
5868;DHT22;2960;49.142;7.768;2023-03-01T08:33:48;4.40;51.90
5868;DHT22;2960;49.142;7.768;2023-03-01T08:36:21;4.60;51.80
5868;DHT22;2960;49.142;7.768;2023-03-01T08:38:50;4.70;51.50
5868;DHT22;2960;49.142;7.768;2023-03-01T08:41:18;4.90;51.30
5868;DHT22;2960;49.142;7.768;2023-03-01T08:43:48;5.10;51.10
5868;DHT22;2960;49.142;7.768;2023-03-01T08:46:16;5.30;51.00
5868;DHT22;2960;49.142;7.768;2023-03-01T08:48:43;5.50;50.90
5868;DHT22;2960;49.142;7.768;2023-03-01T08:51:12;5.70;50.80
5868;DHT22;2960;49.142;7.768;2023-03-01T08:53:41;5.90;50.60
5868;DHT22;2960;49.142;7.768;2023-03-01T08:56:09;6.10;50.50
5868;DHT22;2960;49.142;7.768;2023-03-01T08:58:37;6.30;50.90
5868;DHT22;2960;49.142;7.768;2023-03-01T09:01:09;6.50;50.20
5868;DHT22;2960;49.142;7.768;2023-03-01T09:03:38;6.70;50.00
5868;DHT22;2960;49.142;7.768;2023-03-01T09:06:06;6.90;49.70
5868;DHT22;2960;49.142;7.768;2023-03-01T09:08:35;7.10;49.50
5868;DHT22;2960;49.142;7.768;2023-03-01T09:11:05;7.30;49.40
5868;DHT22;2960;49.142;7.768;2023-03-01T09:13:33;7.60;49.70
5868;DHT22;2960;49.142;7.768;2023-03-01T09:16:02;7.80;49.30
5868;DHT22;2960;49.142;7.768;2023-03-01T09:18:31;8.10;49.10
5868;DHT22;2960;49.142;7.768;2023-03-01T09:21:02;8.30;49.00
5868;DHT22;2960;49.142;7.768;2023-03-01T09:23:34;8.50;48.80
5868;DHT22;2960;49.142;7.768;2023-03-01T09:26:03;8.80;48.70
5868;DHT22;2960;49.142;7.768;2023-03-01T09:28:31;9.00;48.50
5868;DHT22;2960;49.142;7.768;2023-03-01T09:30:58;9.30;48.40
5868;DHT22;2960;49.142;7.768;2023-03-01T09:33:26;9.60;48.10
5868;DHT22;2960;49.142;7.768;2023-03-01T09:35:56;9.90;48.00
5868;DHT22;2960;49.142;7.768;2023-03-01T09:38:24;10.20;46.80
5868;DHT22;2960;49.142;7.768;2023-03-01T09:40:51;10.50;47.20
5868;DHT22;2960;49.142;7.768;2023-03-01T09:43:25;10.80;46.60
5868;DHT22;2960;49.142;7.768;2023-03-01T09:45:56;11.20;46.60
5868;DHT22;2960;49.142;7.768;2023-03-01T09:48:37;11.60;46.20
5868;DHT22;2960;49.142;7.768;2023-03-01T09:51:16;12.00;45.90
5868;DHT22;2960;49.142;7.768;2023-03-01T09:53:45;12.50;45.50
5868;DHT22;2960;49.142;7.768;2023-03-01T09:56:18;12.90;44.50
5868;DHT22;2960;49.142;7.768;2023-03-01T09:58:53;13.40;44.40
5868;DHT22;2960;49.142;7.768;2023-03-01T10:01:40;13.80;44.10
5868;DHT22;2960;49.142;7.768;2023-03-01T10:04:28;14.40;43.60
5868;DHT22;2960;49.142;7.768;2023-03-01T10:07:14;15.00;43.10
5868;DHT22;2960;49.142;7.768;2023-03-01T10:09:47;15.50;42.60
5868;DHT22;2960;49.142;7.768;2023-03-01T10:12:17;15.90;42.50
5868;DHT22;2960;49.142;7.768;2023-03-01T10:14:53;16.30;41.50
5868;DHT22;2960;49.142;7.768;2023-03-01T10:17:27;16.70;41.00
5868;DHT22;2960;49.142;7.768;2023-03-01T10:20:14;17.10;40.50
5868;DHT22;2960;49.142;7.768;2023-03-01T10:22:46;17.50;40.30
5868;DHT22;2960;49.142;7.768;2023-03-01T10:25:21;17.80;39.80
5868;DHT22;2960;49.142;7.768;2023-03-01T10:28:01;18.20;39.20
5868;DHT22;2960;49.142;7.768;2023-03-01T10:30:35;18.50;38.80
5868;DHT22;2960;49.142;7.768;2023-03-01T10:33:14;18.80;38.30
5868;DHT22;2960;49.142;7.768;2023-03-01T10:35:43;19.00;37.30
5868;DHT22;2960;49.142;7.768;2023-03-01T10:38:15;19.20;37.10
5868;DHT22;2960;49.142;7.768;2023-03-01T10:40:53;19.30;36.80
5868;DHT22;2960;49.142;7.768;2023-03-01T10:43:22;19.40;36.40
5868;DHT22;2960;49.142;7.768;2023-03-01T10:45:52;19.60;36.20
5868;DHT22;2960;49.142;7.768;2023-03-01T10:48:21;19.70;35.60
5868;DHT22;2960;49.142;7.768;2023-03-01T10:51:04;19.80;35.00
5868;DHT22;2960;49.142;7.768;2023-03-01T10:53:34;19.90;34.40
5868;DHT22;2960;49.142;7.768;2023-03-01T10:56:05;19.80;34.00
5868;DHT22;2960;49.142;7.768;2023-03-01T10:58:34;19.80;33.70
5868;DHT22;2960;49.142;7.768;2023-03-01T11:01:05;19.80;33.60
5868;DHT22;2960;49.142;7.768;2023-03-01T11:03:34;19.80;33.50
5868;DHT22;2960;49.142;7.768;2023-03-01T11:06:05;19.80;33.50
5868;DHT22;2960;49.142;7.768;2023-03-01T11:08:41;19.90;33.60
5868;DHT22;2960;49.142;7.768;2023-03-01T11:11:21;19.90;33.50
5868;DHT22;2960;49.142;7.768;2023-03-01T11:14:01;20.00;33.40
5868;DHT22;2960;49.142;7.768;2023-03-01T11:16:36;20.10;33.70
5868;DHT22;2960;49.142;7.768;2023-03-01T11:19:18;20.10;33.00
5868;DHT22;2960;49.142;7.768;2023-03-01T11:21:55;20.20;32.60
5868;DHT22;2960;49.142;7.768;2023-03-01T11:24:39;20.20;32.30
5868;DHT22;2960;49.142;7.768;2023-03-01T11:27:18;20.20;32.30
5868;DHT22;2960;49.142;7.768;2023-03-01T11:29:52;20.10;32.20
5868;DHT22;2960;49.142;7.768;2023-03-01T11:32:25;20.10;32.20
5868;DHT22;2960;49.142;7.768;2023-03-01T11:34:58;20.10;32.10
5868;DHT22;2960;49.142;7.768;2023-03-01T11:37:35;20.10;31.30
5868;DHT22;2960;49.142;7.768;2023-03-01T11:40:12;20.10;31.50
5868;DHT22;2960;49.142;7.768;2023-03-01T11:42:53;20.10;31.60
5868;DHT22;2960;49.142;7.768;2023-03-01T11:45:26;20.10;31.60
5868;DHT22;2960;49.142;7.768;2023-03-01T11:48:37;20.10;31.70
5868;DHT22;2960;49.142;7.768;2023-03-01T11:51:19;20.10;31.50
5868;DHT22;2960;49.142;7.768;2023-03-01T11:53:57;20.10;31.50
5868;DHT22;2960;49.142;7.768;2023-03-01T11:56:40;20.10;31.30
5868;DHT22;2960;49.142;7.768;2023-03-01T11:59:25;20.10;30.70
5868;DHT22;2960;49.142;7.768;2023-03-01T12:02:19;20.00;30.50
5868;DHT22;2960;49.142;7.768;2023-03-01T12:05:20;19.90;30.50
5868;DHT22;2960;49.142;7.768;2023-03-01T12:07:56;19.80;30.60
5868;DHT22;2960;49.142;7.768;2023-03-01T12:10:30;19.70;30.50
5868;DHT22;2960;49.142;7.768;2023-03-01T12:13:20;19.60;30.40
5868;DHT22;2960;49.142;7.768;2023-03-01T12:19:07;19.30;29.80
5868;DHT22;2960;49.142;7.768;2023-03-01T12:22:04;19.10;29.80
5868;DHT22;2960;49.142;7.768;2023-03-01T12:28:38;18.70;29.60
5868;DHT22;2960;49.142;7.768;2023-03-01T12:34:24;18.30;29.70
5868;DHT22;2960;49.142;7.768;2023-03-01T12:37:22;18.10;29.80
5868;DHT22;2960;49.142;7.768;2023-03-01T12:40:11;18.00;29.70
5868;DHT22;2960;49.142;7.768;2023-03-01T12:42:50;17.90;29.80
5868;DHT22;2960;49.142;7.768;2023-03-01T12:45:35;17.70;29.80
5868;DHT22;2960;49.142;7.768;2023-03-01T12:48:21;17.70;29.60
5868;DHT22;2960;49.142;7.768;2023-03-01T12:50:57;17.50;29.60
5868;DHT22;2960;49.142;7.768;2023-03-01T12:53:30;17.40;29.60
5868;DHT22;2960;49.142;7.768;2023-03-01T12:56:05;17.40;29.80
5868;DHT22;2960;49.142;7.768;2023-03-01T12:58:35;17.30;29.80
5868;DHT22;2960;49.142;7.768;2023-03-01T13:01:18;17.30;29.80
5868;DHT22;2960;49.142;7.768;2023-03-01T13:04:12;17.20;29.90
5868;DHT22;2960;49.142;7.768;2023-03-01T13:06:47;17.20;29.90
5868;DHT22;2960;49.142;7.768;2023-03-01T13:09:36;17.20;29.90
5868;DHT22;2960;49.142;7.768;2023-03-01T13:15:26;17.10;29.90
5868;DHT22;2960;49.142;7.768;2023-03-01T13:18:01;17.00;29.80
5868;DHT22;2960;49.142;7.768;2023-03-01T13:20:33;16.90;29.80
5868;DHT22;2960;49.142;7.768;2023-03-01T13:23:06;16.90;29.90
5868;DHT22;2960;49.142;7.768;2023-03-01T13:28:52;16.80;30.00
5868;DHT22;2960;49.142;7.768;2023-03-01T13:34:55;16.60;29.80
5868;DHT22;2960;49.142;7.768;2023-03-01T13:37:35;16.60;29.90
5868;DHT22;2960;49.142;7.768;2023-03-01T13:43:31;16.30;29.90
5868;DHT22;2960;49.142;7.768;2023-03-01T13:46:00;16.30;30.00
5868;DHT22;2960;49.142;7.768;2023-03-01T13:48:30;16.30;30.00
5868;DHT22;2960;49.142;7.768;2023-03-01T13:51:00;16.20;30.00
5868;DHT22;2960;49.142;7.768;2023-03-01T13:53:31;16.20;30.00
5868;DHT22;2960;49.142;7.768;2023-03-01T13:56:02;16.20;30.10
5868;DHT22;2960;49.142;7.768;2023-03-01T13:58:46;16.10;30.10
5868;DHT22;2960;49.142;7.768;2023-03-01T14:01:22;16.10;30.10
5868;DHT22;2960;49.142;7.768;2023-03-01T14:03:52;16.20;30.20
5868;DHT22;2960;49.142;7.768;2023-03-01T14:06:22;16.20;30.80
5868;DHT22;2960;49.142;7.768;2023-03-01T14:09:00;16.20;30.20
5868;DHT22;2960;49.142;7.768;2023-03-01T14:11:52;16.20;30.20
5868;DHT22;2960;49.142;7.768;2023-03-01T14:14:51;16.20;30.20
5868;DHT22;2960;49.142;7.768;2023-03-01T14:17:34;16.20;30.20
5868;DHT22;2960;49.142;7.768;2023-03-01T14:20:14;16.10;30.20
5868;DHT22;2960;49.142;7.768;2023-03-01T14:22:44;16.10;30.20
5868;DHT22;2960;49.142;7.768;2023-03-01T14:25:24;16.00;30.10
5868;DHT22;2960;49.142;7.768;2023-03-01T14:27:58;15.90;30.10
5868;DHT22;2960;49.142;7.768;2023-03-01T14:30:32;15.90;30.20
5868;DHT22;2960;49.142;7.768;2023-03-01T14:33:06;15.90;30.00
5868;DHT22;2960;49.142;7.768;2023-03-01T14:35:52;15.90;30.00
5868;DHT22;2960;49.142;7.768;2023-03-01T14:38:21;15.90;30.20
5868;DHT22;2960;49.142;7.768;2023-03-01T14:40:51;15.80;30.10
5868;DHT22;2960;49.142;7.768;2023-03-01T14:43:23;15.80;30.20
5868;DHT22;2960;49.142;7.768;2023-03-01T14:45:52;15.80;30.20
5868;DHT22;2960;49.142;7.768;2023-03-01T14:48:20;15.70;30.10
5868;DHT22;2960;49.142;7.768;2023-03-01T14:50:48;15.70;30.20
5868;DHT22;2960;49.142;7.768;2023-03-01T14:53:17;15.60;30.20
5868;DHT22;2960;49.142;7.768;2023-03-01T14:55:47;15.60;30.20
5868;DHT22;2960;49.142;7.768;2023-03-01T14:58:20;15.50;30.20
5868;DHT22;2960;49.142;7.768;2023-03-01T15:00:52;15.40;30.30
5868;DHT22;2960;49.142;7.768;2023-03-01T15:03:25;15.40;30.40
5868;DHT22;2960;49.142;7.768;2023-03-01T15:05:55;15.30;30.40
5868;DHT22;2960;49.142;7.768;2023-03-01T15:08:25;15.20;30.30
5868;DHT22;2960;49.142;7.768;2023-03-01T15:11:02;15.20;30.40
5868;DHT22;2960;49.142;7.768;2023-03-01T15:13:32;15.00;30.20
5868;DHT22;2960;49.142;7.768;2023-03-01T15:16:07;14.90;30.40
5868;DHT22;2960;49.142;7.768;2023-03-01T15:18:42;14.70;30.40
5868;DHT22;2960;49.142;7.768;2023-03-01T15:21:17;14.60;30.60
5868;DHT22;2960;49.142;7.768;2023-03-01T15:23:49;14.50;30.70
5868;DHT22;2960;49.142;7.768;2023-03-01T15:26:26;14.40;30.70
5868;DHT22;2960;49.142;7.768;2023-03-01T15:28:58;14.20;30.70
5868;DHT22;2960;49.142;7.768;2023-03-01T15:31:28;14.10;30.80
5868;DHT22;2960;49.142;7.768;2023-03-01T15:34:20;14.00;30.90
5868;DHT22;2960;49.142;7.768;2023-03-01T15:36:50;13.90;31.00
5868;DHT22;2960;49.142;7.768;2023-03-01T15:39:31;13.70;31.00
5868;DHT22;2960;49.142;7.768;2023-03-01T15:42:04;13.70;31.10
5868;DHT22;2960;49.142;7.768;2023-03-01T15:44:38;13.60;31.10
5868;DHT22;2960;49.142;7.768;2023-03-01T15:47:25;13.50;31.00
5868;DHT22;2960;49.142;7.768;2023-03-01T15:49:54;13.40;31.20
5868;DHT22;2960;49.142;7.768;2023-03-01T15:52:24;13.30;31.30
5868;DHT22;2960;49.142;7.768;2023-03-01T15:54:56;13.20;31.40
5868;DHT22;2960;49.142;7.768;2023-03-01T15:57:24;13.10;31.40
5868;DHT22;2960;49.142;7.768;2023-03-01T15:59:51;13.10;31.50
5868;DHT22;2960;49.142;7.768;2023-03-01T16:02:19;13.00;31.50
5868;DHT22;2960;49.142;7.768;2023-03-01T16:04:47;12.90;31.50
5868;DHT22;2960;49.142;7.768;2023-03-01T16:07:15;12.80;31.60
5868;DHT22;2960;49.142;7.768;2023-03-01T16:09:43;12.70;31.80
5868;DHT22;2960;49.142;7.768;2023-03-01T16:12:15;12.60;31.80
5868;DHT22;2960;49.142;7.768;2023-03-01T16:14:46;12.50;31.80
5868;DHT22;2960;49.142;7.768;2023-03-01T16:17:14;12.40;31.90
5868;DHT22;2960;49.142;7.768;2023-03-01T16:19:43;12.30;31.90
5868;DHT22;2960;49.142;7.768;2023-03-01T16:22:10;12.20;32.00
5868;DHT22;2960;49.142;7.768;2023-03-01T16:24:37;12.10;32.00
5868;DHT22;2960;49.142;7.768;2023-03-01T16:27:06;12.00;32.70
5868;DHT22;2960;49.142;7.768;2023-03-01T16:29:33;11.90;32.10
5868;DHT22;2960;49.142;7.768;2023-03-01T16:32:00;11.80;32.10
5868;DHT22;2960;49.142;7.768;2023-03-01T16:34:27;11.80;32.30
5868;DHT22;2960;49.142;7.768;2023-03-01T16:36:56;11.70;32.30
5868;DHT22;2960;49.142;7.768;2023-03-01T16:39:23;11.60;32.30
5868;DHT22;2960;49.142;7.768;2023-03-01T16:41:50;11.60;32.40
5868;DHT22;2960;49.142;7.768;2023-03-01T16:44:17;11.50;32.50
5868;DHT22;2960;49.142;7.768;2023-03-01T16:46:44;11.50;32.60
5868;DHT22;2960;49.142;7.768;2023-03-01T16:49:11;11.40;33.20
5868;DHT22;2960;49.142;7.768;2023-03-01T16:51:38;11.40;32.70
5868;DHT22;2960;49.142;7.768;2023-03-01T16:54:07;11.30;32.70
5868;DHT22;2960;49.142;7.768;2023-03-01T16:56:38;11.30;32.80
5868;DHT22;2960;49.142;7.768;2023-03-01T16:59:05;11.20;32.80